Time;durP1;ratioP1;P1;durP2;ratioP2;P2;SDS_P1;SDS_P2;PMS_P1;PMS_P2;Temp;Humidity;BMP_temperature;BMP_pressure;BME280_temperature;BME280_humidity;BME280_pressure;Samples;Min_cycle;Max_cycle;Signal;HPM_P1;HPM_P2
2023/07/13 00:02:05;;;;;;;19.50;11.30;;;;;;;18.36;89.00;99765.56;4236362;28;20234;-66
2023/07/13 00:04:31;;;;;;;23.50;12.43;;;;;;;18.34;88.91;99771.28;4235217;28;20291;-66
2023/07/13 00:06:59;;;;;;;16.47;10.80;;;;;;;18.26;88.93;99765.19;4243561;28;20232;-65
2023/07/13 00:09:27;;;;;;;22.43;11.17;;;;;;;18.27;89.16;99769.63;4220986;28;20239;-68
2023/07/13 00:11:56;;;;;;;21.77;12.07;;;;;;;18.24;88.99;99753.59;4234695;28;20306;-69
2023/07/13 00:14:24;;;;;;;18.50;11.27;;;;;;;18.18;89.37;99749.81;4232281;28;20246;-65
2023/07/13 00:16:51;;;;;;;17.50;12.03;;;;;;;18.25;88.88;99753.38;4241765;28;20228;-68
2023/07/13 00:19:17;;;;;;;20.17;11.93;;;;;;;18.22;89.06;99751.09;4239497;28;20227;-66
2023/07/13 00:21:46;;;;;;;19.13;12.13;;;;;;;18.08;89.70;99754.91;4248941;28;20238;-66
2023/07/13 00:24:15;;;;;;;18.10;12.57;;;;;;;18.08;89.73;99744.78;4247690;28;21583;-65
2023/07/13 00:26:45;;;;;;;20.33;12.90;;;;;;;18.13;89.28;99746.91;4238620;28;20259;-67
2023/07/13 00:29:13;;;;;;;20.70;12.03;;;;;;;18.09;89.43;99754.69;4236834;28;20226;-65
2023/07/13 00:31:40;;;;;;;18.43;12.87;;;;;;;18.04;89.64;99755.34;4239327;28;20235;-66
2023/07/13 00:34:06;;;;;;;19.23;12.90;;;;;;;17.99;90.17;99759.75;4242153;28;21142;-65
2023/07/13 00:36:34;;;;;;;19.83;12.63;;;;;;;17.98;90.01;99758.06;4246967;28;20969;-66
2023/07/13 00:39:01;;;;;;;20.47;13.10;;;;;;;17.74;91.54;99761.22;4241984;28;21475;-65
2023/07/13 00:41:27;;;;;;;20.23;13.57;;;;;;;17.72;91.75;99748.81;4236676;28;20411;-65
2023/07/13 00:43:54;;;;;;;20.23;13.07;;;;;;;17.78;91.18;99758.09;4253372;28;22191;-66
2023/07/13 00:46:29;;;;;;;24.90;13.83;;;;;;;17.78;91.48;99752.59;4230490;28;20242;-65
2023/07/13 00:49:00;;;;;;;18.10;13.30;;;;;;;17.78;91.34;99742.50;4241558;28;20237;-65
2023/07/13 00:51:31;;;;;;;20.07;11.27;;;;;;;17.86;90.99;99741.44;4219706;28;20698;-65
2023/07/13 00:54:00;;;;;;;22.63;14.87;;;;;;;17.71;91.80;99747.94;4257619;28;20918;-66
2023/07/13 00:56:26;;;;;;;23.67;13.90;;;;;;;17.85;91.47;99747.97;4256387;28;20380;-67
2023/07/13 00:58:53;;;;;;;21.07;13.97;;;;;;;17.86;91.11;99738.72;4227235;28;20378;-66
2023/07/13 01:01:20;;;;;;;28.70;15.30;;;;;;;17.69;92.05;99735.53;4238266;28;23008;-67
2023/07/13 01:03:47;;;;;;;23.80;14.63;;;;;;;17.68;92.17;99742.91;4247903;28;20244;-65
2023/07/13 01:06:14;;;;;;;20.97;13.00;;;;;;;17.70;92.23;99751.78;4238225;28;24727;-65
2023/07/13 01:08:41;;;;;;;22.17;12.93;;;;;;;17.83;91.85;99750.91;4238422;28;20254;-65
2023/07/13 01:11:08;;;;;;;21.60;13.57;;;;;;;17.87;90.96;99752.19;4247471;28;21312;-66
2023/07/13 01:13:34;;;;;;;25.50;13.60;;;;;;;17.82;91.28;99749.25;4241953;28;20238;-66
2023/07/13 01:16:07;;;;;;;22.30;14.67;;;;;;;17.83;91.30;99761.84;4232259;28;20293;-66
2023/07/13 01:18:36;;;;;;;20.70;13.30;;;;;;;17.87;91.33;99759.53;4215417;28;21526;-69
2023/07/13 01:21:04;;;;;;;22.00;14.30;;;;;;;17.84;91.23;99752.59;4237879;28;25444;-65
2023/07/13 01:23:31;;;;;;;18.77;13.17;;;;;;;17.78;91.58;99753.44;4248180;28;22159;-66
2023/07/13 01:25:59;;;;;;;20.57;12.80;;;;;;;17.78;91.39;99752.59;4234960;28;20234;-66
2023/07/13 01:28:26;;;;;;;22.70;13.87;;;;;;;17.66;92.34;99750.50;4235341;28;20606;-66
2023/07/13 01:30:55;;;;;;;20.50;12.73;;;;;;;17.74;92.04;99754.94;4241462;28;20328;-64
2023/07/13 01:33:21;;;;;;;19.13;13.93;;;;;;;17.73;91.72;99762.28;4262868;28;21437;-64
2023/07/13 01:35:48;;;;;;;22.63;14.30;;;;;;;17.74;91.71;99765.88;4250999;28;23954;-66
2023/07/13 01:38:16;;;;;;;18.10;13.47;;;;;;;17.77;91.49;99773.66;4254463;28;20218;-64
2023/07/13 01:40:43;;;;;;;22.20;13.40;;;;;;;17.77;91.53;99776.38;4232193;28;20234;-63
2023/07/13 01:43:10;;;;;;;24.40;14.03;;;;;;;17.76;91.50;99771.13;4241736;28;21214;-64
2023/07/13 01:45:37;;;;;;;26.53;14.90;;;;;;;17.69;91.65;99766.50;4252687;28;20277;-65
2023/07/13 01:48:06;;;;;;;23.07;14.50;;;;;;;17.75;91.33;99764.78;4242859;28;20501;-66
2023/07/13 01:50:33;;;;;;;23.30;13.40;;;;;;;17.76;91.48;99782.91;4239417;28;20746;-65
2023/07/13 01:53:00;;;;;;;22.90;14.33;;;;;;;17.70;91.51;99778.28;4241589;28;20246;-64
2023/07/13 01:55:27;;;;;;;35.40;14.90;;;;;;;17.65;91.76;99778.91;4251314;28;20232;-65
2023/07/13 01:57:54;;;;;;;21.43;14.63;;;;;;;17.57;92.18;99782.72;4263867;28;20255;-67
2023/07/13 02:00:20;;;;;;;23.00;14.57;;;;;;;17.58;92.24;99775.34;4226170;28;20244;-66
2023/07/13 02:02:47;;;;;;;20.73;13.20;;;;;;;17.59;92.20;99777.03;4254292;28;20238;-65
2023/07/13 02:05:14;;;;;;;23.73;13.37;;;;;;;17.66;91.71;99777.03;4252219;28;20358;-66
2023/07/13 02:07:41;;;;;;;20.97;14.60;;;;;;;17.62;92.13;99781.22;4240467;28;22324;-66
2023/07/13 02:10:09;;;;;;;25.83;14.63;;;;;;;17.53;92.38;99784.16;4258350;28;24108;-65
2023/07/13 02:12:36;;;;;;;26.33;14.63;;;;;;;17.49;92.42;99784.78;4251736;28;20566;-65
2023/07/13 02:15:04;;;;;;;25.70;13.93;;;;;;;17.48;92.54;99788.59;4241965;28;20526;-66
2023/07/13 02:17:30;;;;;;;26.93;14.37;;;;;;;17.62;91.85;99783.97;4237839;28;25553;-65
2023/07/13 02:19:58;;;;;;;23.83;13.83;;;;;;;17.72;91.24;99785.22;4252068;28;20245;-65
2023/07/13 02:22:24;;;;;;;24.20;14.43;;;;;;;17.81;90.95;99777.66;4236168;28;24077;-66
2023/07/13 02:24:51;;;;;;;21.87;13.60;;;;;;;17.95;89.90;99786.72;4247849;28;20245;-65
2023/07/13 02:27:18;;;;;;;21.97;14.00;;;;;;;18.01;89.99;99785.03;4237541;28;20238;-65
2023/07/13 02:29:44;;;;;;;25.10;14.53;;;;;;;17.97;89.79;99787.38;4237788;28;20591;-65
2023/07/13 02:32:12;;;;;;;25.10;14.40;;;;;;;17.91;90.10;99785.44;4237389;28;20255;-64
2023/07/13 02:34:41;;;;;;;24.90;14.77;;;;;;;17.95;90.22;99794.06;4237413;28;20455;-65
2023/07/13 02:37:08;;;;;;;29.63;14.10;;;;;;;18.01;89.67;99796.00;4242120;28;21191;-66
2023/07/13 02:39:34;;;;;;;22.27;14.30;;;;;;;17.97;89.72;99790.09;4251027;28;21808;-65
2023/07/13 02:42:01;;;;;;;27.97;14.43;;;;;;;17.86;90.30;99794.28;4232438;28;20238;-65
2023/07/13 02:44:28;;;;;;;23.60;13.70;;;;;;;17.96;90.19;99793.06;4247386;28;20379;-65
2023/07/13 02:46:54;;;;;;;28.73;16.27;;;;;;;17.97;89.69;99789.28;4231325;28;21657;-65
2023/07/13 02:49:21;;;;;;;25.53;14.97;;;;;;;18.00;89.71;99786.94;4253436;28;20301;-67
2023/07/13 02:51:48;;;;;;;20.80;13.47;;;;;;;18.03;89.66;99780.19;4268428;28;20229;-66
2023/07/13 02:54:14;;;;;;;29.67;14.50;;;;;;;18.01;90.02;99782.31;4258109;28;21577;-66
2023/07/13 02:56:41;;;;;;;18.93;12.23;;;;;;;18.01;90.08;99783.13;4293107;28;20436;-67
2023/07/13 02:59:08;;;;;;;20.33;13.07;;;;;;;18.02;90.13;99779.34;4323358;28;20262;-65
2023/07/13 03:01:37;;;;;;;21.70;13.30;;;;;;;18.02;90.02;99776.59;4312992;28;20254;-65
2023/07/13 03:04:04;;;;;;;22.57;14.30;;;;;;;18.10;89.50;99775.56;4304835;28;20338;-66
2023/07/13 03:06:32;;;;;;;23.20;13.97;;;;;;;18.15;89.38;99783.97;4300180;28;21781;-67
2023/07/13 03:08:59;;;;;;;22.20;13.77;;;;;;;18.23;89.01;99776.56;4260142;28;21700;-66
2023/07/13 03:11:27;;;;;;;23.00;13.90;;;;;;;18.16;88.82;99788.41;4284517;28;20502;-65
2023/07/13 03:13:54;;;;;;;21.47;13.47;;;;;;;18.18;89.09;99783.56;4261393;28;20319;-65
2023/07/13 03:16:21;;;;;;;26.27;15.40;;;;;;;18.28;88.32;99776.78;4290674;28;20886;-66
2023/07/13 03:18:49;;;;;;;25.67;14.07;;;;;;;18.32;88.32;99780.78;4342480;28;20259;-66
2023/07/13 03:21:15;;;;;;;25.40;14.13;;;;;;;18.39;88.17;99786.25;4300471;28;20229;-66
2023/07/13 03:23:42;;;;;;;22.17;14.70;;;;;;;18.35;87.31;99775.72;4226108;28;20355;-68
2023/07/13 03:26:14;;;;;;;19.37;12.03;;;;;;;18.24;88.43;99781.00;4288603;28;20973;-67
2023/07/13 03:28:43;;;;;;;21.20;13.77;;;;;;;18.32;87.96;99769.81;4251409;28;21669;-69
2023/07/13 03:31:18;;;;;;;28.00;14.77;;;;;;;18.33;88.00;99769.59;4231814;28;20229;-66
2023/07/13 03:33:47;;;;;;;27.63;14.07;;;;;;;18.30;88.47;99763.69;4266819;28;20247;-68
2023/07/13 03:36:26;;;;;;;25.73;14.33;;;;;;;18.36;88.44;99760.09;4254806;28;20222;-65
2023/07/13 03:38:55;;;;;;;18.87;12.93;;;;;;;18.46;88.06;99757.75;4270038;28;20506;-65
2023/07/13 03:41:23;;;;;;;20.70;11.93;;;;;;;18.50;88.01;99755.41;4253313;28;21139;-65
2023/07/13 03:43:49;;;;;;;29.43;14.83;;;;;;;18.52;87.79;99756.06;4230731;28;20239;-67
2023/07/13 03:46:17;;;;;;;29.33;13.37;;;;;;;18.58;87.64;99754.34;4227236;28;25057;-65
2023/07/13 03:48:46;;;;;;;21.97;14.03;;;;;;;18.71;87.01;99756.19;4287839;28;21268;-67
2023/07/13 03:51:15;;;;;;;22.70;13.63;;;;;;;18.73;86.92;99756.81;4275163;28;20561;-65
2023/07/13 03:53:43;;;;;;;21.27;12.37;;;;;;;18.81;86.71;99753.81;4227161;28;21220;-66
2023/07/13 03:56:09;;;;;;;25.97;13.73;;;;;;;18.92;86.31;99766.03;4232685;28;25512;-65
2023/07/13 03:58:39;;;;;;;29.00;14.80;;;;;;;18.92;86.23;99766.84;4242512;28;20365;-66
2023/07/13 04:01:07;;;;;;;21.07;13.20;;;;;;;19.04;86.15;99763.44;4252448;28;20338;-65
2023/07/13 04:03:34;;;;;;;24.30;13.20;;;;;;;19.15;85.81;99763.56;4233472;28;21721;-66
2023/07/13 04:06:02;;;;;;;27.47;14.87;;;;;;;19.25;85.58;99762.25;4236744;28;20254;-69
2023/07/13 04:08:32;;;;;;;26.87;14.03;;;;;;;19.30;85.19;99768.75;4226757;28;20246;-66
2023/07/13 04:10:58;;;;;;;27.53;14.17;;;;;;;19.45;85.02;99770.31;4233738;28;20457;-66
2023/07/13 04:13:26;;;;;;;27.97;15.27;;;;;;;19.55;84.97;99770.69;4222916;28;20300;-65
2023/07/13 04:15:52;;;;;;;23.17;13.90;;;;;;;19.80;84.68;99784.41;4231894;28;20349;-68
2023/07/13 04:18:20;;;;;;;22.77;14.63;;;;;;;20.03;83.37;99787.63;4236274;28;20237;-66
2023/07/13 04:20:47;;;;;;;26.07;15.13;;;;;;;20.10;82.68;99785.66;4260397;28;20283;-66
2023/07/13 04:23:14;;;;;;;28.53;13.43;;;;;;;20.49;81.71;99791.81;4226960;28;20233;-65
2023/07/13 04:25:46;;;;;;;24.13;13.70;;;;;;;20.71;81.19;99805.09;4290580;28;20267;-66
2023/07/13 04:28:12;;;;;;;18.70;12.83;;;;;;;20.85;80.80;99812.16;4248803;28;20430;-66
2023/07/13 04:30:39;;;;;;;24.37;16.07;;;;;;;20.88;79.52;99814.41;4285853;28;21357;-66
2023/07/13 04:33:06;;;;;;;31.60;13.10;;;;;;;20.91;79.68;99815.91;4273938;28;21040;-65
2023/07/13 04:35:33;;;;;;;30.20;13.67;;;;;;;20.77;79.83;99808.88;4221355;28;20311;-67
2023/07/13 04:38:01;;;;;;;20.53;12.67;;;;;;;20.90;79.76;99814.22;4257110;28;21142;-69
2023/07/13 04:40:29;;;;;;;16.90;11.27;;;;;;;21.23;78.86;99807.41;4241675;28;22186;-67
2023/07/13 04:42:56;;;;;;;22.47;11.63;;;;;;;21.26;78.55;99820.72;4234161;28;20231;-66
2023/07/13 04:45:24;;;;;;;21.83;11.17;;;;;;;21.40;77.93;99821.38;4233164;28;20371;-65
2023/07/13 04:47:50;;;;;;;21.33;13.27;;;;;;;21.31;77.04;99825.53;4274145;28;20612;-68
2023/07/13 04:50:22;;;;;;;22.10;12.80;;;;;;;21.04;78.95;99828.63;4239477;28;20234;-67
2023/07/13 04:52:50;;;;;;;21.77;14.13;;;;;;;21.06;78.86;99818.22;4256367;28;23396;-66
2023/07/13 04:55:18;;;;;;;18.00;11.60;;;;;;;21.02;79.26;99808.78;4246790;28;21122;-66
2023/07/13 04:57:46;;;;;;;31.17;15.87;;;;;;;21.03;79.10;99818.72;4263460;28;20233;-66
2023/07/13 05:00:13;;;;;;;21.73;14.83;;;;;;;20.95;79.53;99810.78;4287058;28;20278;-66
2023/07/13 05:02:43;;;;;;;19.20;11.67;;;;;;;20.91;79.96;99818.66;4243151;28;20781;-66
2023/07/13 05:05:09;;;;;;;15.30;9.23;;;;;;;21.13;79.04;99821.72;4244874;28;20240;-67
2023/07/13 05:07:36;;;;;;;20.90;11.93;;;;;;;21.31;78.78;99831.84;4267184;28;20290;-66
2023/07/13 05:10:03;;;;;;;22.53;11.93;;;;;;;21.46;77.97;99831.44;4260263;28;21556;-68
2023/07/13 05:12:30;;;;;;;29.10;13.80;;;;;;;21.43;78.33;99833.81;4253721;28;20235;-68
2023/07/13 05:14:57;;;;;;;20.87;12.83;;;;;;;21.65;77.44;99840.50;4235529;28;20261;-66
2023/07/13 05:17:24;;;;;;;24.07;12.80;;;;;;;21.71;77.43;99833.22;4243467;28;20246;-75
2023/07/13 05:19:50;;;;;;;20.53;12.80;;;;;;;21.55;78.48;99842.94;4251760;28;20223;-76
2023/07/13 05:22:17;;;;;;;20.53;11.97;;;;;;;21.51;78.81;99847.28;4224871;28;21140;-75
2023/07/13 05:24:44;;;;;;;18.07;11.70;;;;;;;21.78;78.40;99863.41;4215307;28;20526;-76
2023/07/13 05:27:11;;;;;;;17.13;11.17;;;;;;;21.81;77.92;99865.69;4244591;28;20415;-75
2023/07/13 05:29:38;;;;;;;20.57;12.00;;;;;;;21.97;77.96;99872.44;4233105;28;20225;-75
2023/07/13 05:32:05;;;;;;;16.17;10.07;;;;;;;22.13;77.67;99880.00;4240633;28;23115;-75
2023/07/13 05:34:32;;;;;;;17.47;10.40;;;;;;;22.37;76.41;99865.41;4217621;28;20240;-75
2023/07/13 05:36:58;;;;;;;18.07;12.13;;;;;;;22.29;76.70;99878.47;4258624;28;24910;-75
2023/07/13 05:39:26;;;;;;;23.00;12.50;;;;;;;22.26;76.33;99880.84;4230750;28;21979;-74
2023/07/13 05:41:52;;;;;;;20.27;13.07;;;;;;;21.87;77.77;99870.25;4213275;28;20303;-76
2023/07/13 05:44:19;;;;;;;19.33;12.63;;;;;;;22.02;77.57;99880.00;4230242;28;20297;-77
2023/07/13 05:46:46;;;;;;;21.37;12.33;;;;;;;22.48;76.11;99876.47;4235418;28;20246;-78
2023/07/13 05:49:13;;;;;;;18.80;13.10;;;;;;;22.84;74.08;99873.66;4234731;28;20255;-77
2023/07/13 05:51:39;;;;;;;22.30;14.03;;;;;;;22.22;76.45;99877.75;4232821;28;20300;-78
2023/07/13 05:54:06;;;;;;;28.77;13.83;;;;;;;22.31;76.83;99881.00;4231604;28;20232;-77
2023/07/13 05:56:32;;;;;;;21.83;13.47;;;;;;;22.31;76.24;99869.97;4214194;28;20237;-79
2023/07/13 05:58:59;;;;;;;22.53;13.40;;;;;;;22.16;76.56;99860.25;4212139;28;20238;-74
2023/07/13 06:01:26;;;;;;;18.47;12.70;;;;;;;22.58;75.35;99845.50;4240537;28;23042;-77
2023/07/13 06:03:52;;;;;;;18.37;11.37;;;;;;;23.05;74.28;99854.78;4229240;28;20239;-74
2023/07/13 06:06:19;;;;;;;18.27;12.90;;;;;;;23.27;72.83;99860.50;4203131;28;20267;-75
2023/07/13 06:08:46;;;;;;;19.13;12.03;;;;;;;23.64;71.61;99854.56;4214425;28;20224;-70
2023/07/13 06:11:19;;;;;;;24.17;14.30;;;;;;;23.20;73.42;99857.06;4237220;28;22911;-74
2023/07/13 06:13:46;;;;;;;20.93;13.13;;;;;;;23.83;71.20;99860.72;4244730;28;20242;-73
2023/07/13 06:16:13;;;;;;;19.60;13.50;;;;;;;24.20;69.04;99853.91;4223537;28;21144;-74
2023/07/13 06:18:41;;;;;;;21.30;13.93;;;;;;;24.00;69.22;99851.63;4237752;28;20235;-74
2023/07/13 06:21:13;;;;;;;19.90;13.60;;;;;;;24.89;66.37;99849.06;4262200;28;20227;-76
2023/07/13 06:23:40;;;;;;;23.73;15.17;;;;;;;25.05;65.12;99844.56;4270454;28;25619;-76
2023/07/13 06:26:07;;;;;;;25.13;14.80;;;;;;;26.02;62.62;99852.25;4251362;28;20246;-76
2023/07/13 06:28:35;;;;;;;21.23;10.98;;;;;;;27.98;56.64;99848.41;4278957;28;20321;-77
2023/07/13 06:31:05;;;;;;;21.30;13.02;;;;;;;28.65;53.36;99843.88;4247890;28;20232;-73
2023/07/13 06:33:33;;;;;;;18.15;9.70;;;;;;;30.48;49.55;99856.16;4224615;28;21101;-78
2023/07/13 06:35:59;;;;;;;21.73;12.68;;;;;;;31.19;46.56;99854.84;4251380;28;20239;-74
2023/07/13 06:38:26;;;;;;;23.52;11.73;;;;;;;31.78;44.95;99855.38;4242366;28;20236;-74
2023/07/13 06:40:53;;;;;;;21.08;13.30;;;;;;;32.34;43.30;99853.63;4253705;28;20234;-72
2023/07/13 06:43:20;;;;;;;23.40;12.57;;;;;;;31.52;44.52;99855.78;4229209;28;20555;-75
2023/07/13 06:45:49;;;;;;;21.63;10.27;;;;;;;32.49;42.78;99846.06;4287513;28;20428;-79
2023/07/13 06:48:17;;;;;;;18.88;8.20;;;;;;;33.28;40.84;99844.19;4277098;28;20429;-79
2023/07/13 06:50:44;;;;;;;17.20;9.18;;;;;;;32.38;40.82;99845.44;4315790;28;21618;-80
2023/07/13 06:53:12;;;;;;;18.80;8.55;;;;;;;33.00;39.65;99839.50;4274877;28;26506;-79
2023/07/13 06:55:40;;;;;;;17.40;7.97;;;;;;;33.21;38.31;99836.22;4291208;28;26311;-79
2023/07/13 06:58:06;;;;;;;14.38;8.57;;;;;;;32.44;39.50;99834.97;4306250;28;20235;-80
2023/07/13 07:00:33;;;;;;;15.25;8.60;;;;;;;32.79;38.75;99832.63;4258558;28;20318;-79
2023/07/13 07:03:00;;;;;;;11.85;7.90;;;;;;;34.88;34.23;99831.75;4261516;28;20239;-80
2023/07/13 07:05:27;;;;;;;12.15;6.40;;;;;;;34.39;35.39;99831.72;4271959;28;25875;-80
2023/07/13 07:07:55;;;;;;;7.28;3.80;;;;;;;34.93;29.98;99836.44;4291262;28;20229;-75
2023/07/13 07:10:21;;;;;;;4.88;3.70;;;;;;;36.17;28.33;99837.03;4269320;28;21443;-75
2023/07/13 07:12:48;;;;;;;8.15;4.40;;;;;;;34.60;31.56;99837.63;4260073;28;20409;-80
2023/07/13 07:15:16;;;;;;;10.68;5.28;;;;;;;33.91;32.77;99841.66;4329737;28;20940;-75
2023/07/13 07:17:43;;;;;;;9.23;4.72;;;;;;;32.14;35.41;99832.38;4302372;28;20246;-76
2023/07/13 07:20:10;;;;;;;11.18;4.28;;;;;;;33.96;33.22;99831.13;4275169;28;20492;-79
2023/07/13 07:22:37;;;;;;;9.63;4.70;;;;;;;32.70;34.79;99830.53;4279342;28;20223;-78
2023/07/13 07:25:04;;;;;;;7.88;4.57;;;;;;;33.42;34.33;99833.84;4282241;28;20302;-77
2023/07/13 07:27:31;;;;;;;7.85;4.88;;;;;;;33.46;34.05;99846.06;4247215;28;20409;-71
2023/07/13 07:30:01;;;;;;;7.05;3.90;;;;;;;33.74;31.66;99845.16;4260008;28;21995;-45
2023/07/13 07:32:30;;;;;;;6.90;3.75;;;;;;;32.83;32.62;99833.69;4274643;28;20455;-58
2023/07/13 07:35:17;;;;;;;7.78;4.18;;;;;;;32.22;34.13;99839.28;4252830;28;20238;-73
2023/07/13 07:37:46;;;;;;;8.15;4.60;;;;;;;32.06;34.08;99839.53;4265655;28;21624;-71
2023/07/13 07:40:17;;;;;;;5.70;3.85;;;;;;;31.22;36.06;99841.09;4258922;28;20238;-74
2023/07/13 07:42:47;;;;;;;9.73;4.10;;;;;;;30.77;37.55;99846.09;4254519;28;22956;-72
2023/07/13 07:45:14;;;;;;;9.55;4.93;;;;;;;30.83;37.88;99850.50;4257636;28;21130;-73
2023/07/13 07:47:41;;;;;;;10.85;5.07;;;;;;;30.60;39.07;99843.75;4275058;28;21484;-74
2023/07/13 07:50:09;;;;;;;11.38;4.82;;;;;;;30.31;38.75;99845.44;4215206;28;20222;-76
2023/07/13 07:52:36;;;;;;;6.40;4.18;;;;;;;30.11;38.50;99848.41;4249136;28;20945;-77
2023/07/13 07:55:04;;;;;;;9.38;3.60;;;;;;;29.09;39.82;99845.97;4292001;28;20298;-74
2023/07/13 07:57:34;;;;;;;8.18;4.20;;;;;;;29.45;39.30;99844.97;4260863;28;23154;-77
2023/07/13 08:00:21;;;;;;;7.63;3.53;;;;;;;29.65;39.24;99842.03;4309413;28;21242;-75
2023/07/13 08:02:51;;;;;;;6.57;4.13;;;;;;;29.28;39.00;99848.94;4242106;28;20309;-80
2023/07/13 08:05:20;;;;;;;6.78;4.20;;;;;;;29.40;39.77;99841.13;4287049;28;22057;-76
2023/07/13 08:08:03;;;;;;;8.70;4.47;;;;;;;29.84;38.93;99853.34;4264643;28;20225;-76
2023/07/13 08:10:29;;;;;;;7.22;3.50;;;;;;;29.54;39.51;99840.47;4276819;28;20230;-73
2023/07/13 08:12:56;;;;;;;6.57;3.70;;;;;;;29.15;39.87;99838.41;4305161;28;20230;-74
2023/07/13 08:15:26;;;;;;;7.78;3.45;;;;;;;29.12;40.70;99848.19;4255295;28;20237;-73
2023/07/13 08:17:53;;;;;;;7.68;4.47;;;;;;;29.55;39.69;99856.06;4287730;28;20230;-75
2023/07/13 08:20:20;;;;;;;7.10;3.90;;;;;;;29.58;39.52;99852.69;4249158;28;22233;-73
2023/07/13 08:22:47;;;;;;;5.78;3.58;;;;;;;29.28;39.70;99845.31;4262661;28;21797;-72
2023/07/13 08:25:14;;;;;;;7.57;3.85;;;;;;;29.33;39.53;99840.59;4247561;28;22363;-73
2023/07/13 08:27:41;;;;;;;5.78;3.85;;;;;;;29.15;40.01;99844.84;4277636;28;20234;-72
2023/07/13 08:30:08;;;;;;;10.07;4.72;;;;;;;29.33;39.79;99848.97;4265104;28;20352;-72
2023/07/13 08:32:36;;;;;;;8.35;4.05;;;;;;;29.35;40.18;99854.25;4256264;28;20268;-73
2023/07/13 08:35:04;;;;;;;8.95;4.13;;;;;;;29.01;40.13;99843.78;4245669;28;20245;-72
2023/07/13 08:37:30;;;;;;;10.93;4.35;;;;;;;28.80;41.01;99856.97;4263129;28;20705;-73
2023/07/13 08:39:57;;;;;;;9.88;4.10;;;;;;;28.46;41.37;99847.28;4260164;28;20602;-72
2023/07/13 08:42:34;;;;;;;8.68;4.13;;;;;;;28.74;41.43;99854.19;4264956;28;20296;-73
2023/07/13 08:45:21;;;;;;;5.90;4.55;;;;;;;28.86;41.47;99867.78;4288660;28;20244;-73
2023/07/13 08:47:58;;;;;;;15.15;4.22;;;;;;;28.90;40.80;99863.34;4252019;28;20245;-73
2023/07/13 08:50:30;;;;;;;10.90;4.30;;;;;;;29.05;41.12;99868.00;4248102;28;20237;-72
2023/07/13 08:52:58;;;;;;;8.40;4.30;;;;;;;28.80;41.72;99865.31;4236996;28;21796;-72
2023/07/13 08:55:28;;;;;;;8.07;4.70;;;;;;;29.20;40.63;99874.63;4231620;28;21149;-72
2023/07/13 08:58:15;;;;;;;10.60;4.80;;;;;;;29.03;41.47;99880.56;4266669;28;20452;-69
2023/07/13 09:01:03;;;;;;;16.00;4.90;;;;;;;29.39;40.83;99872.91;4250196;28;21717;-73
2023/07/13 09:03:39;;;;;;;6.50;4.55;;;;;;;29.25;41.28;99880.19;4262842;28;20602;-72
2023/07/13 09:06:06;;;;;;;8.38;5.22;;;;;;;29.43;41.30;99880.66;4259132;28;20557;-73
2023/07/13 09:08:51;;;;;;;9.82;4.75;;;;;;;29.37;40.84;99871.53;4252306;28;20270;-78
2023/07/13 09:11:28;;;;;;;10.15;4.72;;;;;;;29.94;40.70;99872.00;4249088;28;20247;-72
2023/07/13 09:13:54;;;;;;;6.53;4.18;;;;;;;30.57;39.13;99870.34;4249967;28;24096;-72
2023/07/13 09:16:21;;;;;;;9.23;4.93;;;;;;;30.03;39.49;99864.66;4261440;28;20540;-74
2023/07/13 09:18:50;;;;;;;9.50;5.22;;;;;;;29.06;41.48;99854.91;4242978;28;20247;-73
2023/07/13 09:21:22;;;;;;;9.57;4.78;;;;;;;29.26;41.92;99859.56;4241138;28;20273;-73
2023/07/13 09:23:52;;;;;;;8.95;5.03;;;;;;;29.82;40.16;99854.75;4248314;28;21105;-73
2023/07/13 09:26:21;;;;;;;9.23;4.88;;;;;;;28.37;42.29;99855.34;4247612;28;22024;-74
2023/07/13 09:28:57;;;;;;;8.50;4.90;;;;;;;27.48;44.66;99861.16;4265497;28;20234;-72
2023/07/13 09:31:33;;;;;;;13.25;4.80;;;;;;;27.80;44.93;99879.53;4240436;28;21229;-74
2023/07/13 09:34:00;;;;;;;9.37;4.33;;;;;;;27.71;44.94;99865.34;4230705;28;20249;-75
2023/07/13 09:36:32;;;;;;;8.47;4.60;;;;;;;27.09;46.42;99867.91;4255162;28;20742;-73
2023/07/13 09:39:13;;;;;;;7.82;4.28;;;;;;;26.31;48.31;99868.59;4254420;28;20241;-75
2023/07/13 09:41:49;;;;;;;11.87;3.77;;;;;;;26.29;48.24;99865.22;4217952;28;20282;-73
2023/07/13 09:44:18;;;;;;;9.40;3.65;;;;;;;26.14;47.87;99857.63;4306002;28;20247;-73
2023/07/13 09:46:47;;;;;;;7.63;3.25;;;;;;;26.07;47.49;99858.69;4253500;28;22116;-72
2023/07/13 09:49:14;;;;;;;7.30;2.77;;;;;;;25.34;49.29;99844.34;4241184;28;20238;-72
2023/07/13 09:51:41;;;;;;;5.87;2.60;;;;;;;25.29;49.26;99843.19;4247120;28;20236;-72
2023/07/13 09:54:24;;;;;;;4.60;2.60;;;;;;;25.55;49.27;99845.41;4251325;28;20231;-72
2023/07/13 09:56:58;;;;;;;6.33;3.30;;;;;;;25.79;49.17;99837.63;4235907;28;21475;-70
2023/07/13 09:59:30;;;;;;;6.70;2.80;;;;;;;25.99;48.46;99830.56;4271824;28;20267;-74
2023/07/13 10:01:57;;;;;;;6.63;3.40;;;;;;;25.49;48.76;99835.38;4254676;28;21454;-71
2023/07/13 10:04:33;;;;;;;6.43;3.20;;;;;;;25.07;50.06;99823.00;4230834;28;20234;-73
2023/07/13 10:07:08;;;;;;;5.93;3.67;;;;;;;24.94;50.39;99821.44;4246002;28;20253;-73
2023/07/13 10:09:55;;;;;;;5.50;3.20;;;;;;;24.96;50.20;99822.03;4288445;28;20634;-73
2023/07/13 10:12:25;;;;;;;5.80;3.37;;;;;;;24.61;50.80;99826.00;4255442;28;20669;-71
2023/07/13 10:14:55;;;;;;;9.10;3.80;;;;;;;24.40;51.23;99828.44;4230607;28;20499;-74
2023/07/13 10:17:34;;;;;;;8.73;3.67;;;;;;;24.34;51.51;99830.31;4235990;28;20236;-74
2023/07/13 10:20:05;;;;;;;7.07;3.60;;;;;;;24.18;52.04;99834.75;4249728;28;20304;-75
2023/07/13 10:22:58;;;;;;;14.47;4.47;;;;;;;23.47;59.69;99834.34;4237925;28;21107;-50
2023/07/13 10:25:28;;;;;;;12.00;4.47;;;;;;;22.32;66.48;99841.28;4220185;28;20236;-67
2023/07/13 10:28:29;;;;;;;9.57;4.60;;;;;;;21.32;70.40;99849.22;4246125;28;23473;-50
2023/07/13 10:30:56;;;;;;;14.30;5.20;;;;;;;20.68;74.59;99846.81;4306317;28;20225;-47
2023/07/13 10:33:24;;;;;;;12.73;5.53;;;;;;;20.22;78.00;99857.22;4269594;28;20257;-47
2023/07/13 10:35:56;;;;;;;13.53;5.63;;;;;;;19.80;80.49;99874.22;4246934;28;20226;-57
2023/07/13 10:38:24;;;;;;;22.17;6.33;;;;;;;19.46;84.03;99879.91;4227486;28;21697;-69
2023/07/13 10:40:50;;;;;;;17.83;6.27;;;;;;;19.25;86.94;99900.28;4261693;28;20223;-74
2023/07/13 10:43:20;;;;;;;11.33;6.20;;;;;;;19.14;86.88;99918.28;4248937;28;20242;-73
2023/07/13 10:45:49;;;;;;;19.50;6.87;;;;;;;19.05;89.93;99916.81;4226273;28;20316;-73
2023/07/13 10:48:17;;;;;;;16.27;6.60;;;;;;;18.99;90.36;99926.78;4240364;28;20613;-72
2023/07/13 10:50:46;;;;;;;16.80;6.00;;;;;;;18.93;90.05;99924.88;4211137;28;22857;-71
2023/07/13 10:53:21;;;;;;;15.50;6.50;;;;;;;18.79;90.35;99928.69;4246944;28;20225;-71
2023/07/13 10:55:48;;;;;;;10.77;5.30;;;;;;;18.71;89.79;99921.53;4250440;28;20675;-70
2023/07/13 10:58:28;;;;;;;17.30;6.10;;;;;;;18.53;90.40;99923.03;4241274;28;20244;-71
2023/07/13 11:01:10;;;;;;;15.33;6.23;;;;;;;18.33;91.71;99909.34;4260019;28;20234;-73
2023/07/13 11:03:43;;;;;;;11.17;6.43;;;;;;;18.19;92.64;99916.72;4245696;28;20279;-74
2023/07/13 11:06:33;;;;;;;12.93;7.10;;;;;;;18.17;93.82;99920.72;4240637;28;20295;-73
2023/07/13 11:09:32;;;;;;;15.57;7.80;;;;;;;18.34;93.79;99932.13;4257186;28;22078;-72
2023/07/13 11:12:00;;;;;;;18.43;10.57;;;;;;;18.29;93.46;99940.97;4232708;28;20412;-71
2023/07/13 11:14:44;;;;;;;20.77;9.87;;;;;;;18.14;93.23;99934.84;4228344;28;20246;-71
2023/07/13 11:17:32;;;;;;;18.00;9.67;;;;;;;17.97;93.60;99926.19;4248993;28;22277;-73
2023/07/13 11:20:10;;;;;;;11.07;6.70;;;;;;;17.88;92.54;99931.84;4265028;28;20233;-71
2023/07/13 11:23:28;;;;;;;9.87;5.53;;;;;;;17.70;92.43;99926.09;4229132;28;22804;-69
2023/07/13 11:25:55;;;;;;;8.60;5.50;;;;;;;17.65;92.83;99926.72;4228104;28;20271;-48
2023/07/13 11:28:24;;;;;;;9.30;5.70;;;;;;;17.56;93.48;99930.72;4232001;28;23000;-49
2023/07/13 11:30:56;;;;;;;7.70;5.97;;;;;;;17.73;94.85;99950.34;4263516;28;20235;-46
2023/07/13 11:33:26;;;;;;;11.33;6.30;;;;;;;17.98;93.80;99960.72;4236526;28;20242;-46